createdAt,value
2022-11-30T00:07:57.952Z,102076.88
2022-11-30T00:13:24.483Z,102074.91
2022-11-30T00:15:56.770Z,102062.78
2022-11-30T00:18:53.465Z,102072.75
2022-11-30T00:22:13.555Z,102069.03
2022-11-30T00:24:41.106Z,102073.03
2022-11-30T00:27:17.535Z,102090.19
2022-11-30T00:29:45.717Z,102074.09
2022-11-30T00:32:16.959Z,102072.56
2022-11-30T00:34:49.492Z,102070.22
2022-11-30T00:37:21.502Z,102075.16
2022-11-30T00:39:50.025Z,102066.69
2022-11-30T00:42:28.115Z,102074.34
2022-11-30T00:45:00.972Z,102071.97
2022-11-30T00:47:28.428Z,102067.34
2022-11-30T00:50:07.039Z,102076.03
2022-11-30T00:52:36.568Z,102078.72
2022-11-30T00:55:16.231Z,102084.19
2022-11-30T01:00:34.029Z,102090.66
2022-11-30T01:03:08.142Z,102092.44
2022-11-30T01:05:38.881Z,102115.53
2022-11-30T01:08:10.751Z,102088.91
2022-11-30T01:10:54.282Z,102115.25
2022-11-30T01:13:33.222Z,102111.72
2022-11-30T01:16:08.942Z,102103.75
2022-11-30T01:18:58.137Z,102087.81
2022-11-30T01:21:37.632Z,102092.06
2022-11-30T01:24:11.657Z,102109.78
2022-11-30T01:26:39.043Z,102096.63
2022-11-30T01:29:09.369Z,102091.81
2022-11-30T01:31:49.934Z,102090.28
2022-11-30T01:34:36.737Z,102104.84
2022-11-30T01:37:08.206Z,102097.00
2022-11-30T01:39:37.909Z,102089.72
2022-11-30T01:42:21.799Z,102091.81
2022-11-30T01:45:02.090Z,102118.31
2022-11-30T01:47:40.373Z,102114.91
2022-11-30T01:50:25.685Z,102105.81
2022-11-30T01:53:03.181Z,102101.56
2022-11-30T01:55:38.811Z,102077.72
2022-11-30T01:58:28.706Z,102112.31
2022-11-30T02:01:00.148Z,102120.56
2022-11-30T02:03:48.670Z,102103.63
2022-11-30T02:06:24.352Z,102112.16
2022-11-30T02:08:57.964Z,102106.78
2022-11-30T02:11:30.836Z,102102.25
2022-11-30T02:14:42.036Z,102127.13
2022-11-30T02:17:33.467Z,102116.84
2022-11-30T02:20:03.525Z,102123.69
2022-11-30T02:22:52.295Z,102120.84
2022-11-30T02:25:22.334Z,102114.94
2022-11-30T02:27:54.763Z,102125.91
2022-11-30T02:30:24.121Z,102130.41
2022-11-30T02:33:00.519Z,102108.47
2022-11-30T02:35:37.916Z,102096.09
2022-11-30T02:38:34.906Z,102112.97
2022-11-30T02:41:06.231Z,102107.91
2022-11-30T02:43:36.704Z,102110.19
2022-11-30T02:46:35.051Z,102127.63
2022-11-30T02:49:44.567Z,102100.84
2022-11-30T02:52:35.737Z,102104.25
2022-11-30T02:55:22.181Z,102115.91
2022-11-30T02:57:53.803Z,102120.56
2022-11-30T03:00:23.748Z,102133.63
2022-11-30T03:03:06.845Z,102131.38
2022-11-30T03:05:35.449Z,102132.59
2022-11-30T03:08:06.367Z,102118.91
2022-11-30T03:10:37.235Z,102134.97
2022-11-30T03:13:08.338Z,102120.13
2022-11-30T03:15:41.694Z,102131.91
2022-11-30T03:18:10.040Z,102121.31
2022-11-30T03:20:43.205Z,102118.69
2022-11-30T03:23:13.562Z,102117.66
2022-11-30T03:25:43.523Z,102120.66
2022-11-30T03:28:16.773Z,102122.19
2022-11-30T03:30:52.449Z,102122.91
2022-11-30T03:33:27.521Z,102127.69
2022-11-30T03:36:18.873Z,102130.88
2022-11-30T03:39:01.540Z,102141.28
2022-11-30T03:41:42.527Z,102133.88
2022-11-30T03:45:22.194Z,102130.56
2022-11-30T03:47:39.668Z,102152.13
2022-11-30T03:50:23.700Z,102124.78
2022-11-30T03:52:52.790Z,102129.22
2022-11-30T03:58:37.699Z,102132.50
2022-11-30T04:01:30.833Z,102131.91
2022-11-30T04:04:03.156Z,102133.63
2022-11-30T04:06:30.576Z,102119.34
2022-11-30T04:09:07.665Z,102125.22
2022-11-30T04:11:44.094Z,102123.47
2022-11-30T04:14:12.229Z,102131.59
2022-11-30T04:16:41.977Z,102128.28
2022-11-30T04:19:12.232Z,102152.56
2022-11-30T04:21:52.591Z,102145.13
2022-11-30T04:24:29.063Z,102134.56
2022-11-30T04:27:08.176Z,102148.59
2022-11-30T04:29:41.469Z,102138.81
2022-11-30T04:32:11.882Z,102131.16
2022-11-30T04:34:52.461Z,102158.59
2022-11-30T04:37:21.953Z,102147.88
2022-11-30T04:39:49.629Z,102144.03
2022-11-30T04:42:22.601Z,102137.16
2022-11-30T04:44:52.235Z,102148.72
2022-11-30T04:47:24.325Z,102140.41
2022-11-30T04:49:56.358Z,102134.25
2022-11-30T04:52:37.532Z,102134.81
2022-11-30T04:55:08.409Z,102145.09
2022-11-30T04:57:48.518Z,102135.19
2022-11-30T05:00:28.711Z,102145.09
2022-11-30T05:03:14.897Z,102152.47
2022-11-30T05:05:45.406Z,102157.34
2022-11-30T05:08:35.792Z,102141.44
2022-11-30T05:11:11.738Z,102152.91
2022-11-30T05:13:49.369Z,102148.16
2022-11-30T05:16:26.915Z,102140.97
2022-11-30T05:19:13.977Z,102148.31
2022-11-30T05:21:55.524Z,102155.56
2022-11-30T05:24:31.190Z,102159.91
2022-11-30T05:27:07.768Z,102134.69
2022-11-30T05:29:46.164Z,102155.19
2022-11-30T05:32:21.135Z,102147.03
2022-11-30T05:34:55.838Z,102159.97
2022-11-30T05:37:29.628Z,102141.78
2022-11-30T05:40:07.725Z,102143.66
2022-11-30T05:42:43.202Z,102159.22
2022-11-30T05:45:34.411Z,102172.28
2022-11-30T05:48:21.495Z,102148.38
2022-11-30T05:51:18.282Z,102163.34
2022-11-30T05:54:07.641Z,102164.75
2022-11-30T05:56:39.505Z,102165.69
2022-11-30T05:59:13.124Z,102159.72
2022-11-30T06:01:44.069Z,102180.34
2022-11-30T06:04:13.961Z,102165.41
2022-11-30T06:06:49.441Z,102180.88
2022-11-30T06:09:34.134Z,102200.22
2022-11-30T06:12:14.743Z,102176.28
2022-11-30T06:14:53.549Z,102159.44
2022-11-30T06:17:27.304Z,102189.13
2022-11-30T06:22:53.457Z,102166.63
2022-11-30T06:25:41.448Z,102164.44
2022-11-30T06:31:15.089Z,102173.56
2022-11-30T06:33:45.850Z,102166.84
2022-11-30T06:36:36.469Z,102177.81
2022-11-30T06:39:10.559Z,102187.47
2022-11-30T06:41:48.925Z,102202.34
2022-11-30T06:49:55.590Z,102184.88
2022-11-30T06:53:08.511Z,102210.34
2022-11-30T06:56:10.353Z,102183.81
2022-11-30T06:59:06.434Z,102192.81
2022-11-30T07:01:45.306Z,102197.41
2022-11-30T07:04:27.549Z,102198.09
2022-11-30T07:07:18.194Z,102192.06
2022-11-30T07:10:32.009Z,102197.84
2022-11-30T07:13:41.472Z,102199.28
2022-11-30T07:16:46.297Z,102212.47
2022-11-30T07:23:31.226Z,102219.34
2022-11-30T07:26:13.829Z,102202.00
2022-11-30T07:28:49.179Z,102217.84
2022-11-30T07:32:22.876Z,102240.50
2022-11-30T07:35:06.800Z,102236.59
2022-11-30T07:38:14.095Z,102221.25
2022-11-30T07:41:01.159Z,102245.59
2022-11-30T07:43:50.004Z,102229.53
2022-11-30T07:47:32.986Z,102241.31
2022-11-30T07:50:35.194Z,102241.31
2022-11-30T07:53:34.099Z,102241.19
2022-11-30T07:56:36.531Z,102237.41
2022-11-30T07:59:28.758Z,102251.19
2022-11-30T08:15:20.006Z,102262.19
2022-11-30T08:18:25.660Z,102285.53
2022-11-30T08:21:18.007Z,102274.84
2022-11-30T08:24:06.460Z,102261.66
2022-11-30T08:26:48.765Z,102267.25
2022-11-30T08:32:37.327Z,102271.25
2022-11-30T08:35:42.601Z,102271.38
2022-11-30T08:38:18.449Z,102280.56
2022-11-30T08:43:57.818Z,102300.88
2022-11-30T08:50:50.802Z,102276.53
2022-11-30T08:53:52.241Z,102295.06
2022-11-30T08:56:25.772Z,102279.25
2022-11-30T08:59:06.945Z,102309.22
2022-11-30T09:01:38.328Z,102305.59
2022-11-30T09:04:16.371Z,102307.22
2022-11-30T09:06:57.005Z,102292.63
2022-11-30T09:10:12.347Z,102292.84
2022-11-30T09:12:47.167Z,102291.19
2022-11-30T09:15:17.466Z,102308.09
2022-11-30T09:17:56.960Z,102304.28
2022-11-30T09:20:48.793Z,102294.28
2022-11-30T09:24:02.785Z,102301.69
2022-11-30T09:26:38.577Z,102297.78
2022-11-30T09:32:11.970Z,102314.41
2022-11-30T09:38:51.609Z,102308.00
2022-11-30T09:41:42.958Z,102329.44
2022-11-30T09:44:45.937Z,102323.41
2022-11-30T09:47:45.009Z,102328.97
2022-11-30T09:51:07.831Z,102327.59
2022-11-30T09:54:02.222Z,102300.84
2022-11-30T09:56:41.856Z,102320.97
2022-11-30T09:59:43.250Z,102318.56
2022-11-30T10:02:31.142Z,102304.13
2022-11-30T10:10:31.810Z,102338.97
2022-11-30T10:14:35.773Z,102334.19
2022-11-30T10:17:54.502Z,102318.28
2022-11-30T10:21:20.869Z,102312.53
2022-11-30T10:24:55.990Z,102323.59
2022-11-30T10:31:12.295Z,102296.44
2022-11-30T10:34:08.260Z,102301.28
2022-11-30T10:36:54.470Z,102299.91
2022-11-30T10:39:52.310Z,102319.19
2022-11-30T10:42:56.580Z,102307.38
2022-11-30T10:45:48.947Z,102304.22
2022-11-30T10:48:41.913Z,102296.31
2022-11-30T10:51:36.644Z,102295.53
2022-11-30T10:54:22.455Z,102313.44
2022-11-30T10:57:03.778Z,102300.22
2022-11-30T10:59:57.737Z,102309.88
2022-11-30T11:03:22.952Z,102289.47
2022-11-30T11:06:15.029Z,102305.22
2022-11-30T11:08:53.865Z,102282.31
2022-11-30T11:11:39.242Z,102298.25
2022-11-30T11:14:24.256Z,102288.78
2022-11-30T11:16:58.711Z,102285.13
2022-11-30T11:19:46.510Z,102312.22
2022-11-30T11:22:24.616Z,102302.88
2022-11-30T11:25:32.322Z,102302.00
2022-11-30T11:28:37.629Z,102277.41
2022-11-30T11:31:47.954Z,102285.22
2022-11-30T11:34:58.288Z,102297.44
2022-11-30T11:37:40.610Z,102294.00
2022-11-30T11:40:58.965Z,102276.13
2022-11-30T11:44:21.114Z,102291.47
2022-11-30T11:47:33.926Z,102293.44
2022-11-30T11:50:15.983Z,102285.19
2022-11-30T11:53:47.428Z,102265.91
2022-11-30T11:56:34.393Z,102291.19
2022-11-30T11:59:10.321Z,102270.19
2022-11-30T12:02:18.179Z,102290.72
2022-11-30T12:04:54.110Z,102288.09
2022-11-30T12:08:11.738Z,102265.41
2022-11-30T12:11:02.002Z,102279.44
2022-11-30T12:13:40.611Z,102281.09
2022-11-30T12:16:24.154Z,102292.91
2022-11-30T12:19:20.592Z,102292.47
2022-11-30T12:22:49.269Z,102288.78
2022-11-30T12:26:13.809Z,102289.63
2022-11-30T12:29:19.098Z,102276.00
2022-11-30T12:32:40.633Z,102292.31
2022-11-30T12:35:34.828Z,102289.84
2022-11-30T12:38:26.131Z,102295.50
2022-11-30T12:41:37.421Z,102268.31
2022-11-30T12:44:55.262Z,102262.00
2022-11-30T12:47:49.963Z,102291.75
2022-11-30T12:50:50.821Z,102262.94
2022-11-30T12:53:44.569Z,102288.50
2022-11-30T12:56:55.427Z,102293.19
2022-11-30T13:00:03.381Z,102294.13
2022-11-30T13:03:30.695Z,102289.16
2022-11-30T13:06:52.877Z,102289.53
2022-11-30T13:10:17.362Z,102278.59
2022-11-30T13:13:13.863Z,102286.75
2022-11-30T13:16:18.382Z,102290.06
2022-11-30T13:19:23.737Z,102285.94
2022-11-30T13:22:58.887Z,102284.53
2022-11-30T13:26:58.437Z,102300.22
2022-11-30T13:30:38.459Z,102281.09
2022-11-30T13:33:55.069Z,102303.75
2022-11-30T13:36:49.391Z,102300.75
2022-11-30T13:40:14.917Z,102276.53
2022-11-30T13:43:18.989Z,102287.44
2022-11-30T13:46:43.449Z,102280.28
2022-11-30T13:49:34.280Z,102301.28
2022-11-30T13:52:24.526Z,102280.44
2022-11-30T13:55:08.898Z,102299.50
2022-11-30T13:57:44.727Z,102312.63
2022-11-30T14:01:16.166Z,102291.69
2022-11-30T14:04:35.142Z,102316.94
2022-11-30T14:07:15.636Z,102315.09
2022-11-30T14:10:08.752Z,102288.53
2022-11-30T14:13:14.337Z,102299.22
2022-11-30T14:16:52.545Z,102302.25
2022-11-30T14:19:32.225Z,102317.91
2022-11-30T14:25:17.043Z,102318.78
2022-11-30T14:31:47.614Z,102321.13
2022-11-30T14:37:43.541Z,102348.22
2022-11-30T14:40:25.437Z,102331.31
2022-11-30T14:43:28.118Z,102337.06
2022-11-30T14:46:32.126Z,102354.44
2022-11-30T14:49:15.969Z,102350.44
2022-11-30T14:52:05.274Z,102333.75
2022-11-30T14:55:03.383Z,102342.94
2022-11-30T14:58:38.302Z,102354.84
2022-11-30T15:01:42.020Z,102350.41
2022-11-30T15:04:41.121Z,102330.50
2022-11-30T15:07:21.382Z,102330.78
2022-11-30T15:10:16.778Z,102326.06
2022-11-30T15:13:09.433Z,102320.84
2022-11-30T15:19:23.856Z,102353.13
2022-11-30T15:22:46.065Z,102329.28
2022-11-30T15:25:55.315Z,102336.41
2022-11-30T15:29:24.171Z,102349.13
2022-11-30T15:32:25.822Z,102342.94
2022-11-30T15:35:03.977Z,102336.13
2022-11-30T15:38:35.424Z,102331.75
2022-11-30T15:41:43.132Z,102346.16
2022-11-30T15:44:37.890Z,102355.88
2022-11-30T15:47:21.042Z,102327.91
2022-11-30T15:50:18.462Z,102333.00
2022-11-30T15:54:05.808Z,102348.34
2022-11-30T15:57:39.951Z,102353.44
2022-11-30T16:00:34.443Z,102346.56
2022-11-30T16:03:27.111Z,102337.56
2022-11-30T16:06:08.081Z,102355.31
2022-11-30T16:09:13.875Z,102360.88
2022-11-30T16:12:28.020Z,102375.88
2022-11-30T16:15:08.449Z,102369.59
2022-11-30T16:17:56.013Z,102361.44
2022-11-30T16:20:38.566Z,102360.38
2022-11-30T16:23:14.480Z,102355.06
2022-11-30T16:26:28.903Z,102376.66
2022-11-30T16:29:12.422Z,102361.97
2022-11-30T16:31:57.952Z,102371.16
2022-11-30T16:43:17.339Z,102375.53
2022-11-30T16:49:08.492Z,102381.63
2022-11-30T16:51:51.785Z,102389.84
2022-11-30T16:54:43.915Z,102371.56
2022-11-30T16:57:46.024Z,102391.16
2022-11-30T17:00:36.896Z,102413.34
2022-11-30T17:03:33.153Z,102413.69
2022-11-30T17:07:00.554Z,102419.38
2022-11-30T17:13:31.452Z,102427.47
2022-11-30T17:16:13.300Z,102400.56
2022-11-30T17:20:39.900Z,102401.78
2022-11-30T17:22:53.110Z,102408.34
2022-11-30T17:25:58.238Z,102410.94
2022-11-30T17:28:33.485Z,102411.34
2022-11-30T17:31:11.057Z,102421.38
2022-11-30T17:34:10.282Z,102401.25
2022-11-30T17:37:06.593Z,102399.94
2022-11-30T17:43:27.551Z,102426.44
2022-11-30T17:46:38.939Z,102416.06
2022-11-30T17:49:44.385Z,102425.78
2022-11-30T17:52:24.367Z,102414.06
2022-11-30T17:54:55.165Z,102401.72
2022-11-30T18:00:35.682Z,102419.88
2022-11-30T18:06:41.413Z,102414.47
2022-11-30T18:09:42.696Z,102417.91
2022-11-30T18:15:45.060Z,102412.81
2022-11-30T18:18:25.568Z,102444.28
2022-11-30T18:21:04.722Z,102451.38
2022-11-30T18:24:48.176Z,102450.03
2022-11-30T18:27:33.429Z,102430.97
2022-11-30T18:30:48.375Z,102437.66
2022-11-30T18:34:06.083Z,102441.34
2022-11-30T18:37:10.467Z,102459.09
2022-11-30T18:40:10.651Z,102448.22
2022-11-30T18:42:45.444Z,102446.06
2022-11-30T18:45:13.601Z,102458.06
2022-11-30T18:51:02.875Z,102456.59
2022-11-30T18:53:46.017Z,102451.03
2022-11-30T18:56:24.561Z,102467.38
2022-11-30T18:59:09.626Z,102477.53
2022-11-30T19:01:39.885Z,102447.25
2022-11-30T19:04:17.610Z,102463.09
2022-11-30T19:09:48.610Z,102450.59
2022-11-30T19:12:38.391Z,102476.84
2022-11-30T19:15:18.301Z,102455.94
2022-11-30T19:18:07.910Z,102453.88
2022-11-30T19:21:02.070Z,102455.31
2022-11-30T19:23:36.842Z,102457.00
2022-11-30T19:26:36.194Z,102474.38
2022-11-30T19:29:20.499Z,102448.69
2022-11-30T19:32:05.159Z,102450.38
2022-11-30T19:34:40.913Z,102469.97
2022-11-30T19:37:18.237Z,102469.22
2022-11-30T19:39:48.975Z,102456.81
2022-11-30T19:42:33.797Z,102462.34
2022-11-30T19:45:08.594Z,102456.88
2022-11-30T19:47:52.502Z,102462.69
2022-11-30T19:50:28.791Z,102481.22
2022-11-30T19:53:23.921Z,102479.28
2022-11-30T19:56:28.724Z,102471.84
2022-11-30T19:59:08.074Z,102471.63
2022-11-30T20:01:41.192Z,102479.31
2022-11-30T20:04:21.558Z,102485.13
2022-11-30T20:07:01.773Z,102474.66
2022-11-30T20:09:40.527Z,102491.78
2022-11-30T20:12:12.587Z,102498.81
2022-11-30T20:14:55.102Z,102475.19
2022-11-30T20:17:38.701Z,102493.03
2022-11-30T20:20:31.567Z,102504.44
2022-11-30T20:23:09.171Z,102497.28
2022-11-30T20:25:45.120Z,102485.38
2022-11-30T20:28:26.199Z,102504.22
2022-11-30T20:31:15.001Z,102490.75
2022-11-30T20:33:48.955Z,102490.56
2022-11-30T20:36:24.872Z,102492.41
2022-11-30T20:39:07.504Z,102484.09
2022-11-30T20:41:38.609Z,102493.31
2022-11-30T20:44:19.445Z,102493.56
2022-11-30T20:46:47.196Z,102486.00
2022-11-30T20:49:31.510Z,102504.56
2022-11-30T20:52:02.297Z,102491.69
2022-11-30T20:55:06.517Z,102506.53
2022-11-30T20:57:43.436Z,102509.84
2022-11-30T21:00:38.340Z,102503.81
2022-11-30T21:03:24.397Z,102507.34
2022-11-30T21:06:17.390Z,102507.34
2022-11-30T21:09:01.834Z,102506.91
2022-11-30T21:11:54.547Z,102511.47
2022-11-30T21:15:27.392Z,102509.09
2022-11-30T21:17:37.314Z,102508.06
2022-11-30T21:20:18.623Z,102523.28
2022-11-30T21:22:49.021Z,102512.13
2022-11-30T21:25:31.020Z,102521.44
2022-11-30T21:28:11.042Z,102502.66
2022-11-30T21:30:51.625Z,102502.56
2022-11-30T21:33:33.680Z,102498.41
2022-11-30T21:36:25.673Z,102506.00
2022-11-30T21:39:09.709Z,102521.97
2022-11-30T21:41:52.392Z,102512.09
2022-11-30T21:47:11.558Z,102528.06
2022-11-30T21:49:43.607Z,102529.09
2022-11-30T21:52:22.215Z,102530.16
2022-11-30T21:54:53.692Z,102516.56
2022-11-30T22:00:08.444Z,102522.25
2022-11-30T22:02:59.309Z,102512.75
2022-11-30T22:05:36.433Z,102514.59
2022-11-30T22:08:10.268Z,102532.97
2022-11-30T22:10:44.142Z,102539.88
2022-11-30T22:13:20.127Z,102518.97
2022-11-30T22:16:22.122Z,102517.06
2022-11-30T22:19:12.488Z,102531.41
2022-11-30T22:25:33.713Z,102527.03
2022-11-30T22:28:11.413Z,102528.91
2022-11-30T22:30:50.479Z,102538.16
2022-11-30T22:33:31.162Z,102515.53
2022-11-30T22:36:29.414Z,102528.59
2022-11-30T22:39:46.913Z,102529.03
2022-11-30T22:42:24.824Z,102517.28
2022-11-30T22:45:38.395Z,102539.72
2022-11-30T22:48:25.424Z,102517.41
2022-11-30T22:51:19.651Z,102541.47
2022-11-30T22:53:56.086Z,102540.75
2022-11-30T22:56:36.921Z,102551.41
2022-11-30T22:59:26.604Z,102545.41
2022-11-30T23:02:09.901Z,102546.16
2022-11-30T23:04:56.266Z,102534.13
2022-11-30T23:07:37.516Z,102554.41
2022-11-30T23:10:16.832Z,102542.81
2022-11-30T23:13:00.169Z,102527.06
2022-11-30T23:18:46.183Z,102538.03
2022-11-30T23:21:40.986Z,102561.78
2022-11-30T23:24:24.924Z,102532.25
2022-11-30T23:27:05.019Z,102531.91
2022-11-30T23:30:07.072Z,102543.13
2022-11-30T23:32:34.707Z,102543.66
2022-11-30T23:35:09.410Z,102528.91
2022-11-30T23:37:42.237Z,102531.63
2022-11-30T23:40:19.128Z,102527.56
2022-11-30T23:42:46.726Z,102541.47
2022-11-30T23:45:14.688Z,102533.06
2022-11-30T23:47:42.206Z,102544.16
2022-11-30T23:50:13.236Z,102537.41
2022-11-30T23:52:51.061Z,102523.97
2022-11-30T23:55:39.609Z,102509.44
2022-11-30T23:58:12.186Z,102530.88
